createdAt,value
2023-04-05T00:00:00.225Z,6.50
2023-04-05T00:00:12.585Z,6.50
2023-04-05T00:00:24.676Z,6.60
2023-04-05T00:00:36.675Z,6.50
2023-04-05T00:00:48.465Z,6.60
2023-04-05T00:01:00.367Z,6.50
2023-04-05T00:01:12.733Z,6.50
2023-04-05T00:01:25.700Z,6.60
2023-04-05T00:01:37.775Z,6.60
2023-04-05T00:01:50.326Z,6.60
2023-04-05T00:02:02.334Z,6.60
2023-04-05T00:02:14.257Z,6.60
2023-04-05T00:02:30.263Z,6.50
2023-04-05T00:02:42.397Z,6.50
2023-04-05T00:02:55.830Z,6.50
2023-04-05T00:03:10.183Z,6.50
2023-04-05T00:03:22.359Z,6.50
2023-04-05T00:03:34.892Z,6.50
2023-04-05T00:03:47.635Z,6.50
2023-04-05T00:04:00.485Z,6.40
2023-04-05T00:04:14.869Z,6.50
2023-04-05T00:04:27.025Z,6.50
2023-04-05T00:04:50.419Z,6.40
2023-04-05T00:05:03.314Z,6.50
2023-04-05T00:05:15.178Z,6.50
2023-04-05T00:05:30.855Z,6.50
2023-04-05T00:05:42.622Z,6.50
2023-04-05T00:05:55.948Z,6.40
2023-04-05T00:06:08.115Z,6.50
2023-04-05T00:06:26.527Z,6.40
2023-04-05T00:06:39.997Z,6.50
2023-04-05T00:06:53.146Z,6.50
2023-04-05T00:07:08.260Z,6.40
2023-04-05T00:07:21.702Z,6.50
2023-04-05T00:07:35.089Z,6.40
2023-04-05T00:07:48.297Z,6.40
2023-04-05T00:08:01.613Z,6.40
2023-04-05T00:08:18.478Z,6.40
2023-04-05T00:08:30.247Z,6.40
2023-04-05T00:08:44.473Z,6.40
2023-04-05T00:08:57.655Z,6.40
2023-04-05T00:09:09.532Z,6.40
2023-04-05T00:09:21.475Z,6.40
2023-04-05T00:09:33.390Z,6.40
2023-04-05T00:09:45.766Z,6.40
2023-04-05T00:09:58.083Z,6.40
2023-04-05T00:10:10.968Z,6.40
2023-04-05T00:10:23.119Z,6.40
2023-04-05T00:10:34.940Z,6.40
2023-04-05T00:10:46.770Z,6.50
2023-04-05T00:10:58.596Z,6.40
2023-04-05T00:11:10.986Z,6.40
2023-04-05T00:11:23.170Z,6.40
2023-04-05T00:11:35.106Z,6.40
2023-04-05T00:11:47.523Z,6.40
2023-04-05T00:11:59.746Z,6.40
2023-04-05T00:12:12.130Z,6.40
2023-04-05T00:12:26.374Z,6.40
2023-04-05T00:12:38.228Z,6.40
2023-04-05T00:12:51.257Z,6.40
2023-04-05T00:13:03.013Z,6.40
2023-04-05T00:13:15.555Z,6.40
2023-04-05T00:13:27.435Z,6.40
2023-04-05T00:13:39.203Z,6.40
2023-04-05T00:13:51.225Z,6.40
2023-04-05T00:14:03.375Z,6.40
2023-04-05T00:14:15.418Z,6.40
2023-04-05T00:14:27.569Z,6.40
2023-04-05T00:14:39.474Z,6.40
2023-04-05T00:14:51.383Z,6.40
2023-04-05T00:15:04.726Z,6.30
2023-04-05T00:15:16.885Z,6.30
2023-04-05T00:15:28.824Z,6.40
2023-04-05T00:15:41.190Z,6.30
2023-04-05T00:15:53.038Z,6.40
2023-04-05T00:16:05.718Z,6.40
2023-04-05T00:16:17.773Z,6.30
2023-04-05T00:16:29.959Z,6.30
2023-04-05T00:16:42.149Z,6.40
2023-04-05T00:16:54.096Z,6.30
2023-04-05T00:17:06.388Z,6.40
2023-04-05T00:17:18.231Z,6.40
2023-04-05T00:17:31.691Z,6.40
2023-04-05T00:17:44.167Z,6.40
2023-04-05T00:17:56.030Z,6.40
2023-04-05T00:18:07.929Z,6.30
2023-04-05T00:18:21.889Z,6.30
2023-04-05T00:18:34.408Z,6.40
2023-04-05T00:18:50.053Z,6.30
2023-04-05T00:19:02.210Z,6.40
2023-04-05T00:19:14.155Z,6.30
2023-04-05T00:19:26.141Z,6.40
2023-04-05T00:19:38.297Z,6.30
2023-04-05T00:19:57.340Z,6.40
2023-04-05T00:20:13.109Z,6.40
2023-04-05T00:20:24.936Z,6.30
2023-04-05T00:20:37.453Z,6.30
2023-04-05T00:20:52.416Z,6.40
2023-04-05T00:21:04.451Z,6.40
2023-04-05T00:21:16.967Z,6.40
2023-04-05T00:21:30.226Z,6.40
2023-04-05T00:21:42.048Z,6.40
2023-04-05T00:21:54.602Z,6.40
2023-04-05T00:22:06.533Z,6.40
2023-04-05T00:22:20.243Z,6.40
2023-04-05T00:22:35.997Z,6.40
2023-04-05T00:22:50.692Z,6.40
2023-04-05T00:23:02.886Z,6.40
2023-04-05T00:23:16.665Z,6.40
2023-04-05T00:23:29.527Z,6.40
2023-04-05T00:23:41.814Z,6.40
2023-04-05T00:23:58.686Z,6.40
2023-04-05T00:24:15.519Z,6.40
2023-04-05T00:24:29.536Z,6.40
2023-04-05T00:24:43.818Z,6.40
2023-04-05T00:24:56.118Z,6.40
2023-04-05T00:25:08.438Z,6.40
2023-04-05T00:25:21.964Z,6.40
2023-04-05T00:25:33.993Z,6.40
2023-04-05T00:25:45.926Z,6.40
2023-04-05T00:25:57.721Z,6.40
2023-04-05T00:26:09.499Z,6.40
2023-04-05T00:26:21.437Z,6.40
2023-04-05T00:26:33.286Z,6.40
2023-04-05T00:26:45.233Z,6.40
2023-04-05T00:26:57.681Z,6.50
2023-04-05T00:27:09.778Z,6.50
2023-04-05T00:27:21.744Z,6.40
2023-04-05T00:27:33.977Z,6.40
2023-04-05T00:27:46.098Z,6.40
2023-04-05T00:27:57.995Z,6.40
2023-04-05T00:28:10.639Z,6.40
2023-04-05T00:28:23.119Z,6.40
2023-04-05T00:28:35.286Z,6.40
2023-04-05T00:28:48.138Z,6.40
2023-04-05T00:28:59.987Z,6.40
2023-04-05T00:29:11.963Z,6.40
2023-04-05T00:29:23.898Z,6.40
2023-04-05T00:29:36.077Z,6.50
2023-04-05T00:29:47.902Z,6.40
2023-04-05T00:29:59.852Z,6.40
2023-04-05T00:30:12.144Z,6.40
2023-04-05T00:30:24.077Z,6.40
2023-04-05T00:30:36.304Z,6.40
2023-04-05T00:30:48.234Z,6.40
2023-04-05T00:31:00.144Z,6.40
2023-04-05T00:31:12.032Z,6.40
2023-04-05T00:31:24.105Z,6.40
2023-04-05T00:31:36.264Z,6.40
2023-04-05T00:31:48.298Z,6.40
2023-04-05T00:32:00.164Z,6.40
2023-04-05T00:32:12.236Z,6.40
2023-04-05T00:32:24.211Z,6.40
2023-04-05T00:32:36.284Z,6.40
2023-04-05T00:32:49.949Z,6.40
2023-04-05T00:33:02.071Z,6.40
2023-04-05T00:33:13.943Z,6.40
2023-04-05T00:33:25.938Z,6.40
2023-04-05T00:33:37.713Z,6.40
2023-04-05T00:33:49.602Z,6.30
2023-04-05T00:34:01.588Z,6.40
2023-04-05T00:34:13.871Z,6.40
2023-04-05T00:34:25.938Z,6.40
2023-04-05T00:34:38.853Z,6.40
2023-04-05T00:34:50.723Z,6.40
2023-04-05T00:35:02.775Z,6.40
2023-04-05T00:35:14.570Z,6.40
2023-04-05T00:35:29.489Z,6.40
2023-04-05T00:35:41.526Z,6.40
2023-04-05T00:35:53.520Z,6.40
2023-04-05T00:36:23.257Z,6.30
2023-04-05T00:36:35.486Z,6.40
2023-04-05T00:36:47.245Z,6.40
2023-04-05T00:36:59.747Z,6.30
2023-04-05T00:37:12.023Z,6.30
2023-04-05T00:37:23.983Z,6.40
2023-04-05T00:37:36.300Z,6.40
2023-04-05T00:37:48.131Z,6.30
2023-04-05T00:37:59.951Z,6.30
2023-04-05T00:38:11.790Z,6.30
2023-04-05T00:38:23.617Z,6.30
2023-04-05T00:38:35.524Z,6.30
2023-04-05T00:38:47.917Z,6.30
2023-04-05T00:38:59.693Z,6.30
2023-04-05T00:39:11.487Z,6.30
2023-04-05T00:39:23.281Z,6.30
2023-04-05T00:39:35.271Z,6.20
2023-04-05T00:39:47.131Z,6.30
2023-04-05T00:39:59.006Z,6.30
2023-04-05T00:40:10.965Z,6.30
2023-04-05T00:40:23.538Z,6.30
2023-04-05T00:40:36.460Z,6.30
2023-04-05T00:40:48.207Z,6.30
2023-04-05T00:41:00.047Z,6.30
2023-04-05T00:41:12.169Z,6.40
2023-04-05T00:41:24.094Z,6.30
2023-04-05T00:41:39.223Z,6.40
2023-04-05T00:41:51.202Z,6.40
2023-04-05T00:42:04.489Z,6.30
2023-04-05T00:42:16.270Z,6.30
2023-04-05T00:42:28.058Z,6.20
2023-04-05T00:42:39.833Z,6.20
2023-04-05T00:42:51.648Z,6.20
2023-04-05T00:43:03.594Z,6.20
2023-04-05T00:43:15.573Z,6.20
2023-04-05T00:43:27.355Z,6.20
2023-04-05T00:43:39.150Z,6.20
2023-04-05T00:43:52.234Z,6.20
2023-04-05T00:44:04.114Z,6.20
2023-04-05T00:44:15.948Z,6.20
2023-04-05T00:44:28.927Z,6.20
2023-04-05T00:44:41.123Z,6.20
2023-04-05T00:44:52.891Z,6.20
2023-04-05T00:45:05.547Z,6.20
2023-04-05T00:45:17.382Z,6.20
2023-04-05T00:45:29.152Z,6.20
2023-04-05T00:45:42.752Z,6.20
2023-04-05T00:45:55.072Z,6.20
2023-04-05T00:46:07.251Z,6.20
2023-04-05T00:46:19.036Z,6.20
2023-04-05T00:46:30.874Z,6.20
2023-04-05T00:46:42.678Z,6.20
2023-04-05T00:46:55.433Z,6.20
2023-04-05T00:47:10.065Z,6.20
2023-04-05T00:47:21.981Z,6.20
2023-04-05T00:47:33.797Z,6.20
2023-04-05T00:47:45.907Z,6.20
2023-04-05T00:47:57.764Z,6.20
2023-04-05T00:48:09.624Z,6.10
2023-04-05T00:48:21.465Z,6.20
2023-04-05T00:48:33.943Z,6.20
2023-04-05T00:48:46.119Z,6.20
2023-04-05T00:48:57.945Z,6.20
2023-04-05T00:49:09.740Z,6.20
2023-04-05T00:49:21.553Z,6.20
2023-04-05T00:49:34.266Z,6.20
2023-04-05T00:49:46.080Z,6.10
2023-04-05T00:49:57.831Z,6.10
2023-04-05T00:50:11.274Z,6.10
2023-04-05T00:50:23.343Z,6.10
2023-04-05T00:50:35.151Z,6.10
2023-04-05T00:50:49.370Z,6.10
2023-04-05T00:51:01.825Z,6.10
2023-04-05T00:51:13.626Z,6.10
2023-04-05T00:51:25.361Z,6.10
2023-04-05T00:51:38.174Z,6.10
2023-04-05T00:51:50.048Z,6.10
2023-04-05T00:52:02.188Z,6.10
2023-04-05T00:52:14.784Z,6.10
2023-04-05T00:52:27.251Z,6.10
2023-04-05T00:52:39.353Z,6.10
2023-04-05T00:52:51.315Z,6.10
2023-04-05T00:53:03.268Z,6.10
2023-04-05T00:53:15.947Z,6.10
2023-04-05T00:53:28.108Z,6.10
2023-04-05T00:53:40.828Z,6.10
2023-04-05T00:53:53.066Z,6.10
2023-04-05T00:54:05.024Z,6.10
2023-04-05T00:54:16.960Z,6.10
2023-04-05T00:54:29.629Z,6.10
2023-04-05T00:54:43.386Z,6.10
2023-04-05T00:54:55.225Z,6.10
2023-04-05T00:55:07.506Z,6.10
2023-04-05T00:55:19.417Z,6.10
2023-04-05T00:55:34.256Z,6.10
2023-04-05T00:55:49.517Z,6.10
2023-04-05T00:56:01.401Z,6.10
2023-04-05T00:56:13.302Z,6.10
2023-04-05T00:56:25.219Z,6.10
2023-04-05T00:56:37.108Z,6.10
2023-04-05T00:56:48.972Z,6.10
2023-04-05T00:57:00.855Z,6.10
2023-04-05T00:57:12.590Z,6.10
2023-04-05T00:57:25.179Z,6.10
2023-04-05T00:57:39.905Z,6.10
2023-04-05T00:57:51.646Z,6.10
2023-04-05T00:58:03.530Z,6.10
2023-04-05T00:58:19.874Z,6.10
2023-04-05T00:58:32.036Z,6.10
2023-04-05T00:58:43.990Z,6.10
2023-04-05T00:58:55.913Z,6.10
2023-04-05T00:59:07.782Z,6.10
2023-04-05T00:59:20.013Z,6.10
2023-04-05T00:59:31.947Z,6.10
2023-04-05T00:59:43.859Z,6.10
2023-04-05T00:59:58.447Z,6.10
2023-04-05T01:00:11.880Z,6.10
2023-04-05T01:00:24.514Z,6.10
2023-04-05T01:00:40.096Z,6.10
2023-04-05T01:01:09.728Z,6.10
2023-04-05T01:01:22.666Z,6.10
2023-04-05T01:01:34.662Z,6.10
2023-04-05T01:01:55.500Z,6.10
2023-04-05T01:02:32.514Z,6.10
2023-04-05T01:02:49.819Z,6.10
2023-04-05T01:03:02.009Z,6.10
2023-04-05T01:03:13.993Z,6.10
2023-04-05T01:03:27.656Z,6.10
2023-04-05T01:03:41.199Z,6.10
2023-04-05T01:03:54.252Z,6.10
2023-04-05T01:04:07.452Z,6.10
2023-04-05T01:04:22.143Z,6.10
2023-04-05T01:04:37.192Z,6.10
2023-04-05T01:04:51.790Z,6.10
2023-04-05T01:05:05.432Z,6.10
2023-04-05T01:05:37.262Z,6.10
2023-04-05T01:06:09.128Z,6.10
2023-04-05T01:06:28.579Z,6.10
2023-04-05T01:07:33.579Z,6.10
2023-04-05T01:07:48.516Z,6.10
2023-04-05T01:08:18.381Z,6.10
2023-04-05T01:08:37.646Z,6.10
2023-04-05T01:08:56.249Z,6.00
2023-04-05T01:09:29.267Z,6.00
2023-04-05T01:09:53.634Z,6.00
2023-04-05T01:10:06.692Z,6.00
2023-04-05T01:10:18.488Z,6.00
2023-04-05T01:10:33.238Z,6.00
2023-04-05T01:10:59.529Z,6.00
2023-04-05T01:11:11.321Z,6.00
2023-04-05T01:11:23.187Z,5.90
2023-04-05T01:11:35.621Z,5.90
2023-04-05T01:11:47.424Z,5.90
2023-04-05T01:12:01.364Z,5.90
2023-04-05T01:12:18.932Z,5.90
2023-04-05T01:12:33.329Z,5.90
2023-04-05T01:12:45.951Z,5.90
2023-04-05T01:12:57.679Z,5.90
2023-04-05T01:13:09.528Z,5.90
2023-04-05T01:13:21.330Z,5.90
2023-04-05T01:13:33.420Z,6.00
2023-04-05T01:13:48.027Z,6.00
2023-04-05T01:14:00.899Z,5.90
2023-04-05T01:14:12.739Z,5.90
2023-04-05T01:14:26.833Z,6.00
2023-04-05T01:14:52.690Z,5.90
2023-04-05T01:15:04.980Z,5.90
2023-04-05T01:15:19.004Z,5.90
2023-04-05T01:15:30.911Z,5.90
2023-04-05T01:15:45.488Z,5.90
2023-04-05T01:15:57.804Z,5.90
2023-04-05T01:16:10.384Z,6.00
2023-04-05T01:16:22.236Z,5.90
2023-04-05T01:16:34.039Z,5.90
2023-04-05T01:16:45.909Z,5.90
2023-04-05T01:16:58.427Z,5.90
2023-04-05T01:17:10.803Z,5.90
2023-04-05T01:17:24.107Z,5.90
2023-04-05T01:17:39.301Z,5.90
2023-04-05T01:17:54.222Z,5.90
2023-04-05T01:18:06.169Z,5.90
2023-04-05T01:18:18.449Z,5.90
2023-04-05T01:18:31.126Z,5.90
2023-04-05T01:18:46.636Z,5.90
2023-04-05T01:18:58.611Z,5.90
2023-04-05T01:19:13.423Z,5.80
2023-04-05T01:19:27.730Z,5.90
2023-04-05T01:19:42.091Z,5.90
2023-04-05T01:19:58.894Z,5.90
2023-04-05T01:20:11.862Z,5.90
2023-04-05T01:20:26.313Z,5.90
2023-04-05T01:20:46.440Z,5.90
2023-04-05T01:21:07.665Z,5.90
2023-04-05T01:21:34.176Z,5.90
2023-04-05T01:22:26.643Z,5.90
2023-04-05T01:23:01.178Z,5.90
2023-04-05T01:23:18.229Z,5.90
2023-04-05T01:24:09.892Z,5.90
2023-04-05T01:24:52.849Z,5.90
2023-04-05T01:25:16.673Z,5.90
2023-04-05T01:25:52.969Z,5.90
2023-04-05T01:26:16.477Z,5.80
2023-04-05T01:26:38.476Z,5.80
2023-04-05T01:27:22.899Z,5.90
2023-04-05T01:27:59.151Z,5.90
2023-04-05T01:28:20.348Z,5.80
2023-04-05T01:29:05.085Z,5.80
2023-04-05T01:29:34.744Z,5.80
2023-04-05T01:30:14.326Z,5.80
2023-04-05T01:30:44.608Z,5.80
2023-04-05T01:31:18.157Z,5.90
2023-04-05T01:31:41.818Z,5.90
2023-04-05T01:31:59.907Z,5.90
2023-04-05T01:32:17.805Z,5.90
2023-04-05T01:32:32.199Z,5.90
2023-04-05T01:33:05.621Z,5.90
2023-04-05T01:33:38.179Z,5.90
2023-04-05T01:33:56.326Z,5.90
2023-04-05T01:34:20.074Z,5.90
2023-04-05T01:35:04.015Z,5.90
2023-04-05T01:35:24.976Z,5.90
2023-04-05T01:35:51.391Z,5.90
2023-04-05T01:36:15.759Z,5.90
2023-04-05T01:36:32.793Z,5.90
2023-04-05T01:36:55.364Z,5.90
2023-04-05T01:37:08.888Z,5.90
2023-04-05T01:37:22.676Z,5.90
2023-04-05T01:37:34.608Z,5.90
2023-04-05T01:37:49.990Z,5.90
2023-04-05T01:38:03.316Z,5.90
2023-04-05T01:38:18.837Z,5.90
2023-04-05T01:38:30.796Z,5.90
2023-04-05T01:38:42.520Z,5.90
2023-04-05T01:38:54.408Z,5.90
2023-04-05T01:39:06.306Z,5.90
2023-04-05T01:39:18.036Z,5.80
2023-04-05T01:39:30.247Z,5.80
2023-04-05T01:39:42.063Z,5.80
2023-04-05T01:39:53.908Z,5.80
2023-04-05T01:40:06.518Z,5.80
2023-04-05T01:40:18.421Z,5.80
2023-04-05T01:40:31.909Z,5.80
2023-04-05T01:40:43.841Z,5.80
2023-04-05T01:40:55.970Z,5.80
2023-04-05T01:41:07.700Z,5.80
2023-04-05T01:41:19.533Z,5.80
2023-04-05T01:41:31.370Z,5.80
2023-04-05T01:41:43.226Z,5.80
2023-04-05T01:42:01.302Z,5.80
2023-04-05T01:42:13.151Z,5.80
2023-04-05T01:42:26.179Z,5.80
2023-04-05T01:42:38.013Z,5.80
2023-04-05T01:42:49.875Z,5.80
2023-04-05T01:43:02.596Z,5.80
2023-04-05T01:43:15.328Z,5.80
2023-04-05T01:43:27.130Z,5.80
2023-04-05T01:43:38.933Z,5.90
2023-04-05T01:43:50.675Z,5.80
2023-04-05T01:44:02.416Z,5.80
2023-04-05T01:44:14.342Z,5.80
2023-04-05T01:44:26.602Z,5.90
2023-04-05T01:44:38.438Z,5.80
2023-04-05T01:44:50.837Z,5.80
2023-04-05T01:45:02.759Z,5.90
2023-04-05T01:45:14.740Z,5.80
2023-04-05T01:45:26.638Z,5.80
2023-04-05T01:45:38.547Z,5.90
2023-04-05T01:45:50.655Z,5.80
2023-04-05T01:46:02.506Z,5.90
2023-04-05T01:46:14.466Z,5.80
2023-04-05T01:46:26.605Z,5.80
2023-04-05T01:46:38.552Z,5.90
2023-04-05T01:46:50.571Z,5.80
2023-04-05T01:47:02.360Z,5.80
2023-04-05T01:47:14.182Z,5.80
2023-04-05T01:47:25.918Z,5.80
2023-04-05T01:47:37.773Z,5.80
2023-04-05T01:47:49.626Z,5.80
2023-04-05T01:48:01.557Z,5.80
2023-04-05T01:48:13.935Z,5.80
2023-04-05T01:48:25.768Z,5.80
2023-04-05T01:48:37.621Z,5.80
2023-04-05T01:48:49.367Z,5.80
2023-04-05T01:49:01.333Z,5.80
2023-04-05T01:49:13.139Z,5.80
2023-04-05T01:49:24.981Z,5.80
2023-04-05T01:49:36.734Z,5.80
2023-04-05T01:49:48.611Z,5.80
2023-04-05T01:50:00.484Z,5.80
2023-04-05T01:50:12.630Z,5.80
2023-04-05T01:50:24.609Z,5.70
2023-04-05T01:50:36.399Z,5.70
2023-04-05T01:50:48.196Z,5.70
2023-04-05T01:50:59.945Z,5.70
2023-04-05T01:51:11.740Z,5.70
2023-04-05T01:51:23.629Z,5.70
2023-04-05T01:51:35.899Z,5.70
2023-04-05T01:51:47.686Z,5.70
2023-04-05T01:51:59.580Z,5.70
2023-04-05T01:52:11.441Z,5.70
2023-04-05T01:52:23.217Z,5.80
2023-04-05T01:52:35.215Z,5.70
2023-04-05T01:52:47.161Z,5.70
2023-04-05T01:52:58.934Z,5.80
2023-04-05T01:53:10.823Z,5.70
2023-04-05T01:53:22.660Z,5.70
2023-04-05T01:53:34.422Z,5.70
2023-04-05T01:53:46.513Z,5.70
2023-04-05T01:53:58.300Z,5.70
2023-04-05T01:54:10.158Z,5.70
2023-04-05T01:54:21.988Z,5.70
2023-04-05T01:54:33.872Z,5.70
2023-04-05T01:54:45.784Z,5.70
2023-04-05T01:54:57.597Z,5.70
2023-04-05T01:55:09.494Z,5.70
2023-04-05T01:55:21.271Z,5.70
2023-04-05T01:55:33.078Z,5.70
2023-04-05T01:55:44.996Z,5.70
2023-04-05T01:56:03.240Z,5.70
2023-04-05T01:56:15.032Z,5.70
2023-04-05T01:56:27.481Z,5.70
2023-04-05T01:56:39.303Z,5.70
2023-04-05T01:56:51.205Z,5.70
2023-04-05T01:57:03.300Z,5.70
2023-04-05T01:57:15.335Z,5.70
2023-04-05T01:57:27.095Z,5.70
2023-04-05T01:57:39.193Z,5.70
2023-04-05T01:57:52.493Z,5.70
2023-04-05T01:58:04.299Z,5.70
2023-04-05T01:58:16.695Z,5.70
2023-04-05T01:58:28.745Z,5.70
2023-04-05T01:58:40.623Z,5.70
2023-04-05T01:58:52.638Z,5.70
2023-04-05T01:59:04.410Z,5.70
2023-04-05T01:59:16.197Z,5.70
2023-04-05T01:59:28.046Z,5.70
2023-04-05T01:59:40.174Z,5.70
2023-04-05T01:59:52.083Z,5.70
2023-04-05T02:00:04.546Z,5.70
2023-04-05T02:00:16.358Z,5.70
2023-04-05T02:00:28.224Z,5.70
2023-04-05T02:00:40.272Z,5.70
2023-04-05T02:00:55.369Z,5.70
2023-04-05T02:01:07.328Z,5.70
2023-04-05T02:01:19.262Z,5.70
2023-04-05T02:01:31.267Z,5.70
2023-04-05T02:01:43.100Z,5.70
2023-04-05T02:01:54.900Z,5.70
2023-04-05T02:02:06.738Z,5.70
2023-04-05T02:02:18.522Z,5.70
2023-04-05T02:02:30.548Z,5.70
2023-04-05T02:02:42.577Z,5.70
2023-04-05T02:02:54.389Z,5.70
2023-04-05T02:03:06.537Z,5.70
2023-04-05T02:03:18.531Z,5.70
2023-04-05T02:03:30.751Z,5.70
2023-04-05T02:03:42.674Z,5.70
2023-04-05T02:03:54.800Z,5.70
2023-04-05T02:04:06.770Z,5.70
2023-04-05T02:04:18.589Z,5.70
2023-04-05T02:04:30.334Z,5.70
2023-04-05T02:04:42.485Z,5.70
2023-04-05T02:04:54.341Z,5.70
2023-04-05T02:05:06.543Z,5.70
2023-04-05T02:05:18.298Z,5.70
2023-04-05T02:05:30.069Z,5.70
2023-04-05T02:05:45.579Z,5.70
2023-04-05T02:05:57.637Z,5.70
2023-04-05T02:06:09.497Z,5.70
2023-04-05T02:06:21.455Z,5.70
2023-04-05T02:06:33.523Z,5.70
2023-04-05T02:06:45.350Z,5.70
2023-04-05T02:06:57.122Z,5.70
2023-04-05T02:07:08.921Z,5.70
2023-04-05T02:07:20.858Z,5.70
2023-04-05T02:07:32.661Z,5.60
2023-04-05T02:07:44.592Z,5.70
2023-04-05T02:07:56.460Z,5.70
2023-04-05T02:08:08.674Z,5.70
2023-04-05T02:08:20.631Z,5.70
2023-04-05T02:08:32.488Z,5.70
2023-04-05T02:08:44.360Z,5.70
2023-04-05T02:08:56.081Z,5.70
2023-04-05T02:09:07.852Z,5.70
2023-04-05T02:09:19.770Z,5.70
2023-04-05T02:09:31.594Z,5.70
2023-04-05T02:09:43.376Z,5.70
2023-04-05T02:09:55.226Z,5.70
2023-04-05T02:10:07.776Z,5.70
2023-04-05T02:10:20.097Z,5.70
2023-04-05T02:10:31.991Z,5.70
2023-04-05T02:10:44.582Z,5.70
2023-04-05T02:10:56.442Z,5.70
2023-04-05T02:11:08.361Z,5.70
2023-04-05T02:11:20.135Z,5.70
2023-04-05T02:11:31.952Z,5.70
2023-04-05T02:11:43.886Z,5.70
2023-04-05T02:11:56.618Z,5.70
2023-04-05T02:12:08.527Z,5.70
2023-04-05T02:12:20.345Z,5.70
2023-04-05T02:12:32.251Z,5.70
2023-04-05T02:12:44.564Z,5.60
2023-04-05T02:12:56.680Z,5.60
2023-04-05T02:13:08.588Z,5.60
2023-04-05T02:13:22.263Z,5.60
2023-04-05T02:13:34.189Z,5.60
2023-04-05T02:13:46.248Z,5.60
2023-04-05T02:13:58.078Z,5.60
2023-04-05T02:14:10.689Z,5.60
2023-04-05T02:14:24.387Z,5.60
2023-04-05T02:14:36.096Z,5.60
2023-04-05T02:14:47.912Z,5.60
2023-04-05T02:14:59.806Z,5.60
2023-04-05T02:15:12.364Z,5.60
2023-04-05T02:15:24.154Z,5.60
2023-04-05T02:15:35.967Z,5.60
2023-04-05T02:15:50.678Z,5.60
2023-04-05T02:16:02.584Z,5.60
2023-04-05T02:16:15.553Z,5.60
2023-04-05T02:16:27.519Z,5.60
2023-04-05T02:16:39.387Z,5.60
2023-04-05T02:16:51.213Z,5.60
2023-04-05T02:17:03.336Z,5.60
2023-04-05T02:17:15.451Z,5.60
2023-04-05T02:17:34.112Z,5.60
2023-04-05T02:17:46.277Z,5.60
2023-04-05T02:18:02.190Z,5.60
2023-04-05T02:18:14.140Z,5.60
2023-04-05T02:18:31.514Z,5.60
2023-04-05T02:18:44.113Z,5.60
2023-04-05T02:18:58.085Z,5.60
2023-04-05T02:19:11.208Z,5.60
2023-04-05T02:19:23.214Z,5.60
2023-04-05T02:19:46.318Z,5.60
2023-04-05T02:20:02.289Z,5.60
2023-04-05T02:20:14.661Z,5.60
2023-04-05T02:20:26.791Z,5.60
2023-04-05T02:20:38.924Z,5.60
2023-04-05T02:20:51.356Z,5.60
2023-04-05T02:21:04.726Z,5.60
2023-04-05T02:21:17.070Z,5.50
2023-04-05T02:21:28.937Z,5.60
2023-04-05T02:21:40.965Z,5.60
2023-04-05T02:21:54.099Z,5.60
2023-04-05T02:22:05.948Z,5.60
2023-04-05T02:22:17.845Z,5.60
2023-04-05T02:22:30.163Z,5.60
2023-04-05T02:22:45.148Z,5.60
2023-04-05T02:22:57.055Z,5.60
2023-04-05T02:23:09.140Z,5.50
2023-04-05T02:23:21.086Z,5.60
2023-04-05T02:23:33.034Z,5.60
2023-04-05T02:23:44.882Z,5.60
2023-04-05T02:23:56.656Z,5.60
2023-04-05T02:24:08.406Z,5.60
2023-04-05T02:24:20.445Z,5.50
2023-04-05T02:24:32.200Z,5.50
2023-04-05T02:24:44.110Z,5.60
2023-04-05T02:24:55.861Z,5.60
2023-04-05T02:25:11.303Z,5.50
2023-04-05T02:25:23.123Z,5.50
2023-04-05T02:25:34.941Z,5.50
2023-04-05T02:25:46.853Z,5.50
2023-04-05T02:25:58.944Z,5.50
2023-04-05T02:26:10.886Z,5.50
2023-04-05T02:26:22.805Z,5.50
2023-04-05T02:26:34.613Z,5.50
2023-04-05T02:26:46.509Z,5.50
2023-04-05T02:26:58.628Z,5.50
2023-04-05T02:27:10.892Z,5.50
2023-04-05T02:27:22.668Z,5.50
2023-04-05T02:27:34.982Z,5.50
2023-04-05T02:27:46.970Z,5.50
2023-04-05T02:27:58.820Z,5.50
2023-04-05T02:28:11.918Z,5.50
2023-04-05T02:28:23.836Z,5.50
2023-04-05T02:28:35.682Z,5.50
2023-04-05T02:28:47.589Z,5.50
2023-04-05T02:28:59.393Z,5.50
2023-04-05T02:29:11.332Z,5.50
2023-04-05T02:29:23.117Z,5.50
2023-04-05T02:29:34.972Z,5.50
2023-04-05T02:29:47.100Z,5.50
2023-04-05T02:29:59.078Z,5.50
2023-04-05T02:30:13.745Z,5.50
2023-04-05T02:30:26.529Z,5.50
2023-04-05T02:30:38.599Z,5.50
2023-04-05T02:30:50.752Z,5.50
2023-04-05T02:31:03.001Z,5.40
2023-04-05T02:31:14.891Z,5.50
2023-04-05T02:31:27.204Z,5.50
2023-04-05T02:31:39.108Z,5.50
2023-04-05T02:31:50.893Z,5.40
2023-04-05T02:32:02.714Z,5.40
2023-04-05T02:32:14.558Z,5.50
2023-04-05T02:32:26.349Z,5.50
2023-04-05T02:32:38.272Z,5.40
2023-04-05T02:32:50.198Z,5.40
2023-04-05T02:33:02.098Z,5.50
2023-04-05T02:33:13.877Z,5.50
2023-04-05T02:33:25.969Z,5.40
2023-04-05T02:33:38.734Z,5.40
2023-04-05T02:33:50.736Z,5.40
2023-04-05T02:34:02.499Z,5.50
2023-04-05T02:34:14.253Z,5.40
2023-04-05T02:34:27.756Z,5.40
2023-04-05T02:34:41.568Z,5.40
2023-04-05T02:34:53.784Z,5.40
2023-04-05T02:35:06.067Z,5.40
2023-04-05T02:35:17.994Z,5.50
2023-04-05T02:35:29.914Z,5.50
2023-04-05T02:35:42.274Z,5.50
2023-04-05T02:35:54.259Z,5.50
2023-04-05T02:36:10.774Z,5.50
2023-04-05T02:36:25.101Z,5.50
2023-04-05T02:36:37.228Z,5.40
2023-04-05T02:36:52.217Z,5.50
2023-04-05T02:37:04.008Z,5.40
2023-04-05T02:37:16.524Z,5.50
2023-04-05T02:37:28.553Z,5.40
2023-04-05T02:37:41.723Z,5.40
2023-04-05T02:37:53.498Z,5.40
2023-04-05T02:38:05.350Z,5.40
2023-04-05T02:38:17.304Z,5.40
2023-04-05T02:38:29.097Z,5.40
2023-04-05T02:38:44.088Z,5.40
2023-04-05T02:38:56.203Z,5.40
2023-04-05T02:39:08.095Z,5.40
2023-04-05T02:39:20.094Z,5.40
2023-04-05T02:39:32.911Z,5.40
2023-04-05T02:39:46.520Z,5.40
2023-04-05T02:39:58.622Z,5.40
2023-04-05T02:40:13.847Z,5.40
2023-04-05T02:40:26.388Z,5.40
2023-04-05T02:40:42.182Z,5.40
2023-04-05T02:40:55.692Z,5.40
2023-04-05T02:41:11.933Z,5.40
2023-04-05T02:41:25.147Z,5.40
2023-04-05T02:41:39.777Z,5.40
2023-04-05T02:41:53.189Z,5.40
2023-04-05T02:42:07.888Z,5.40
2023-04-05T02:42:27.387Z,5.40
2023-04-05T02:42:42.522Z,5.40
2023-04-05T02:42:54.682Z,5.40
2023-04-05T02:43:15.184Z,5.40
2023-04-05T02:43:27.463Z,5.40
2023-04-05T02:43:39.579Z,5.40
2023-04-05T02:43:51.758Z,5.40
2023-04-05T02:44:03.483Z,5.40
2023-04-05T02:44:15.393Z,5.40
2023-04-05T02:44:27.116Z,5.40
2023-04-05T02:44:38.972Z,5.40
2023-04-05T02:44:51.739Z,5.40
2023-04-05T02:45:03.820Z,5.40
2023-04-05T02:45:15.691Z,5.40
2023-04-05T02:45:28.034Z,5.40
2023-04-05T02:45:39.869Z,5.40
2023-04-05T02:45:52.060Z,5.30
2023-04-05T02:46:04.081Z,5.30
2023-04-05T02:46:16.216Z,5.30
2023-04-05T02:46:28.061Z,5.30
2023-04-05T02:46:39.928Z,5.30
2023-04-05T02:46:51.864Z,5.30
2023-04-05T02:47:03.814Z,5.30
2023-04-05T02:47:21.389Z,5.30
2023-04-05T02:47:33.331Z,5.30
2023-04-05T02:47:45.270Z,5.30
2023-04-05T02:47:57.067Z,5.30
2023-04-05T02:48:08.891Z,5.30
2023-04-05T02:48:20.993Z,5.30
2023-04-05T02:48:32.857Z,5.30
2023-04-05T02:48:45.715Z,5.30
2023-04-05T02:48:57.433Z,5.30
2023-04-05T02:49:09.327Z,5.30
2023-04-05T02:49:21.331Z,5.20
2023-04-05T02:49:33.098Z,5.20
2023-04-05T02:49:44.998Z,5.20
2023-04-05T02:49:56.740Z,5.20
2023-04-05T02:50:08.760Z,5.20
2023-04-05T02:50:21.146Z,5.20
2023-04-05T02:50:32.938Z,5.20
2023-04-05T02:50:49.687Z,5.20
2023-04-05T02:51:01.664Z,5.20
2023-04-05T02:51:13.476Z,5.20
2023-04-05T02:51:25.241Z,5.20
2023-04-05T02:51:37.088Z,5.20
2023-04-05T02:51:48.890Z,5.20
2023-04-05T02:52:00.909Z,5.20
2023-04-05T02:52:12.655Z,5.20
2023-04-05T02:52:24.467Z,5.20
2023-04-05T02:52:37.738Z,5.20
2023-04-05T02:52:50.262Z,5.20
2023-04-05T02:53:01.986Z,5.30
2023-04-05T02:53:13.875Z,5.30
2023-04-05T02:53:25.728Z,5.20
2023-04-05T02:53:37.446Z,5.30
2023-04-05T02:53:49.353Z,5.20
2023-04-05T02:54:04.277Z,5.20
2023-04-05T02:54:16.031Z,5.20
2023-04-05T02:54:27.784Z,5.30
2023-04-05T02:54:39.557Z,5.30
2023-04-05T02:54:51.384Z,5.20
2023-04-05T02:55:06.539Z,5.20
2023-04-05T02:55:18.549Z,5.20
2023-04-05T02:55:31.316Z,5.20
2023-04-05T02:55:43.200Z,5.20
2023-04-05T02:55:55.364Z,5.20
2023-04-05T02:56:07.907Z,5.20
2023-04-05T02:56:22.120Z,5.20
2023-04-05T02:56:34.221Z,5.20
2023-04-05T02:56:46.454Z,5.30
2023-04-05T02:57:02.362Z,5.30
2023-04-05T02:57:14.145Z,5.30
2023-04-05T02:57:26.765Z,5.20
2023-04-05T02:57:38.498Z,5.30
2023-04-05T02:57:50.338Z,5.20
2023-04-05T02:58:02.208Z,5.20
2023-04-05T02:58:14.449Z,5.20
2023-04-05T02:58:26.392Z,5.20
2023-04-05T02:58:38.200Z,5.20
2023-04-05T02:58:49.996Z,5.20
2023-04-05T02:59:02.633Z,5.20
2023-04-05T02:59:14.953Z,5.20
2023-04-05T02:59:27.395Z,5.20
2023-04-05T02:59:39.246Z,5.20
2023-04-05T02:59:52.130Z,5.20
2023-04-05T03:00:05.342Z,5.30
2023-04-05T03:00:17.497Z,5.20
2023-04-05T03:00:29.307Z,5.20